createdAt,value
2018-11-07T00:00:49.766Z,52.38
2018-11-07T00:03:18.166Z,57.13
2018-11-07T00:05:46.310Z,50.73
2018-11-07T00:08:14.609Z,54.63
2018-11-07T00:10:42.918Z,52.98
2018-11-07T00:13:11.096Z,53.33
2018-11-07T00:15:39.259Z,57.00
2018-11-07T00:18:07.386Z,54.73
2018-11-07T00:20:35.530Z,51.65
2018-11-07T00:23:03.633Z,51.70
2018-11-07T00:25:31.818Z,52.20
2018-11-07T00:27:59.899Z,54.42
2018-11-07T00:30:27.982Z,53.73
2018-11-07T00:32:56.167Z,49.08
2018-11-07T00:35:24.250Z,48.63
2018-11-07T00:37:52.446Z,57.73
2018-11-07T00:40:20.625Z,56.88
2018-11-07T00:42:48.809Z,54.33
2018-11-07T00:45:16.900Z,54.90
2018-11-07T00:47:45.078Z,55.08
2018-11-07T00:50:15.260Z,59.33
2018-11-07T00:52:43.842Z,50.35
2018-11-07T00:55:12.758Z,60.23
2018-11-07T00:57:41.142Z,52.48
2018-11-07T01:00:15.475Z,50.25
2018-11-07T01:02:43.573Z,47.23
2018-11-07T01:05:12.869Z,53.98
2018-11-07T01:07:41.774Z,55.03
2018-11-07T01:10:10.274Z,51.40
2018-11-07T01:12:38.554Z,57.67
2018-11-07T01:15:07.410Z,57.93
2018-11-07T01:17:35.510Z,63.92
2018-11-07T01:20:03.686Z,54.20
2018-11-07T01:22:31.895Z,55.78
2018-11-07T01:25:00.216Z,55.75
2018-11-07T01:27:28.501Z,51.35
2018-11-07T01:29:56.750Z,55.08
2018-11-07T01:32:24.834Z,52.88
2018-11-07T01:34:52.957Z,46.08
2018-11-07T01:37:21.112Z,49.70
2018-11-07T01:39:49.208Z,44.27
2018-11-07T01:42:17.414Z,41.10
2018-11-07T01:44:45.582Z,42.75
2018-11-07T01:47:13.746Z,45.45
2018-11-07T01:49:41.848Z,48.83
2018-11-07T01:52:10.075Z,45.15
2018-11-07T01:54:38.213Z,51.65
2018-11-07T01:57:06.394Z,45.63
2018-11-07T01:59:34.483Z,44.42
2018-11-07T02:02:02.562Z,47.38
2018-11-07T02:04:30.662Z,47.55
2018-11-07T02:06:58.846Z,52.67
2018-11-07T02:09:27.068Z,55.58
2018-11-07T02:11:55.221Z,53.83
2018-11-07T02:14:23.441Z,57.35
2018-11-07T02:16:51.595Z,60.40
2018-11-07T02:19:19.795Z,64.10
2018-11-07T02:21:48.002Z,54.13
2018-11-07T02:24:16.173Z,51.40
2018-11-07T02:26:44.358Z,51.95
2018-11-07T02:29:14.611Z,51.90
2018-11-07T02:31:44.836Z,54.15
2018-11-07T02:34:13.554Z,51.58
2018-11-07T02:36:41.928Z,48.05
2018-11-07T02:39:12.479Z,52.65
2018-11-07T02:41:41.082Z,47.78
2018-11-07T02:44:09.974Z,48.83
2018-11-07T02:46:38.231Z,42.03
2018-11-07T02:49:06.330Z,42.43
2018-11-07T02:51:34.511Z,47.62
2018-11-07T02:54:02.739Z,40.73
2018-11-07T02:56:31.010Z,33.15
2018-11-07T02:58:59.211Z,35.25
2018-11-07T03:01:28.331Z,43.05
2018-11-07T03:03:56.598Z,41.05
2018-11-07T03:06:24.895Z,41.35
2018-11-07T03:08:53.057Z,38.08
2018-11-07T03:11:21.286Z,37.88
2018-11-07T03:13:49.649Z,35.95
2018-11-07T03:16:17.938Z,36.63
2018-11-07T03:18:46.081Z,39.63
2018-11-07T03:21:14.204Z,37.93
2018-11-07T03:23:42.362Z,38.95
2018-11-07T03:26:10.454Z,39.08
2018-11-07T03:28:38.646Z,35.30
2018-11-07T03:31:06.822Z,34.65
2018-11-07T03:33:35.018Z,36.48
2018-11-07T03:36:03.206Z,35.52
2018-11-07T03:38:31.377Z,32.03
2018-11-07T03:40:59.525Z,31.15
2018-11-07T03:43:27.655Z,26.48
2018-11-07T03:45:58.234Z,25.40
2018-11-07T03:48:27.434Z,27.00
2018-11-07T03:50:55.606Z,29.40
2018-11-07T03:53:23.982Z,30.82
2018-11-07T03:55:52.146Z,32.35
2018-11-07T03:58:20.260Z,25.57
2018-11-07T04:00:48.392Z,26.52
2018-11-07T04:03:16.556Z,25.60
2018-11-07T04:05:44.723Z,27.25
2018-11-07T04:08:13.006Z,28.90
2018-11-07T04:10:41.094Z,26.35
2018-11-07T04:13:09.306Z,27.07
2018-11-07T04:15:37.486Z,31.33
2018-11-07T04:18:05.886Z,26.70
2018-11-07T04:20:34.073Z,26.23
2018-11-07T04:23:02.366Z,24.98
2018-11-07T04:25:30.536Z,25.97
2018-11-07T04:27:58.723Z,23.32
2018-11-07T04:30:26.898Z,27.90
2018-11-07T04:32:55.103Z,29.15
2018-11-07T04:35:23.274Z,30.50
2018-11-07T04:37:51.469Z,31.17
2018-11-07T04:40:19.646Z,30.65
2018-11-07T04:42:47.785Z,30.92
2018-11-07T04:45:15.914Z,29.52
2018-11-07T04:47:44.122Z,32.23
2018-11-07T04:50:12.731Z,30.52
2018-11-07T04:52:40.863Z,27.65
2018-11-07T04:55:08.978Z,29.63
2018-11-07T04:57:37.178Z,27.05
2018-11-07T05:00:07.795Z,29.20
2018-11-07T05:02:35.897Z,29.98
2018-11-07T05:05:04.075Z,29.72
2018-11-07T05:07:32.466Z,26.60
2018-11-07T05:10:00.654Z,31.48
2018-11-07T05:12:28.986Z,28.02
2018-11-07T05:14:57.150Z,27.60
2018-11-07T05:17:25.333Z,31.27
2018-11-07T05:19:53.510Z,29.67
2018-11-07T05:22:21.718Z,34.58
2018-11-07T05:24:49.879Z,34.25
2018-11-07T05:27:18.070Z,34.38
2018-11-07T05:29:46.258Z,32.42
2018-11-07T05:32:14.445Z,37.03
2018-11-07T05:34:42.761Z,35.40
2018-11-07T05:37:10.910Z,33.40
2018-11-07T05:39:39.098Z,33.23
2018-11-07T05:42:07.278Z,35.78
2018-11-07T05:44:35.369Z,32.63
2018-11-07T05:47:03.549Z,32.95
2018-11-07T05:49:31.656Z,43.85
2018-11-07T05:51:59.837Z,33.85
2018-11-07T05:54:28.023Z,31.37
2018-11-07T05:56:56.197Z,32.13
2018-11-07T05:59:25.109Z,35.52
2018-11-07T06:01:53.198Z,35.13
2018-11-07T06:04:21.382Z,35.50
2018-11-07T06:06:49.568Z,36.68
2018-11-07T06:09:17.774Z,34.18
2018-11-07T06:11:45.933Z,34.98
2018-11-07T06:14:14.027Z,36.70
2018-11-07T06:16:42.218Z,38.55
2018-11-07T06:19:10.410Z,35.65
2018-11-07T06:21:38.590Z,37.35
2018-11-07T06:24:06.788Z,35.78
2018-11-07T06:26:34.971Z,38.48
2018-11-07T06:29:03.166Z,38.58
2018-11-07T06:31:31.370Z,37.53
2018-11-07T06:33:59.537Z,38.02
2018-11-07T06:36:27.708Z,42.60
2018-11-07T06:38:55.930Z,38.70
2018-11-07T06:41:24.082Z,40.80
2018-11-07T06:43:52.174Z,41.85
2018-11-07T06:46:20.394Z,38.80
2018-11-07T06:48:48.554Z,36.88
2018-11-07T06:51:16.753Z,33.20
2018-11-07T06:53:44.921Z,36.10
2018-11-07T06:56:13.128Z,34.45
2018-11-07T06:58:41.291Z,33.23
2018-11-07T07:01:09.506Z,28.10
2018-11-07T07:03:37.666Z,30.40
2018-11-07T07:06:05.867Z,33.18
2018-11-07T07:08:33.958Z,29.23
2018-11-07T07:11:02.126Z,29.15
2018-11-07T07:13:30.335Z,26.70
2018-11-07T07:15:58.526Z,30.32
2018-11-07T07:18:26.702Z,28.52
2018-11-07T07:20:54.866Z,27.62
2018-11-07T07:23:23.066Z,26.68
2018-11-07T07:25:51.255Z,21.55
2018-11-07T07:28:19.442Z,23.15
2018-11-07T07:30:47.630Z,29.52
2018-11-07T07:33:15.849Z,23.85
2018-11-07T07:35:43.902Z,23.70
2018-11-07T07:38:12.083Z,26.40
2018-11-07T07:40:40.274Z,26.12
2018-11-07T07:43:08.458Z,20.27
2018-11-07T07:45:36.679Z,19.40
2018-11-07T07:48:05.008Z,19.07
2018-11-07T07:50:33.115Z,26.97
2018-11-07T07:53:01.392Z,30.25
2018-11-07T07:55:29.502Z,28.30
2018-11-07T07:57:57.689Z,30.50
2018-11-07T08:00:25.874Z,29.85
2018-11-07T08:02:54.047Z,29.42
2018-11-07T08:05:22.253Z,29.42
2018-11-07T08:07:50.550Z,32.90
2018-11-07T08:10:19.970Z,30.17
2018-11-07T08:12:48.563Z,28.40
2018-11-07T08:15:17.330Z,34.83
2018-11-07T08:17:45.959Z,31.77
2018-11-07T08:20:15.274Z,35.35
2018-11-07T08:22:44.291Z,32.05
2018-11-07T08:25:12.584Z,33.18
2018-11-07T08:27:40.781Z,34.48
2018-11-07T08:30:10.470Z,35.95
2018-11-07T08:32:38.774Z,34.98
2018-11-07T08:35:08.182Z,34.58
2018-11-07T08:37:36.390Z,33.08
2018-11-07T08:40:07.202Z,31.70
2018-11-07T08:42:35.392Z,36.42
2018-11-07T08:45:03.614Z,34.95
2018-11-07T08:47:31.861Z,34.25
2018-11-07T08:49:59.959Z,35.40
2018-11-07T08:52:28.054Z,30.62
2018-11-07T08:54:56.255Z,40.05
2018-11-07T08:57:24.418Z,34.33
2018-11-07T08:59:52.598Z,34.53
2018-11-07T09:02:20.791Z,31.75
2018-11-07T09:04:48.970Z,29.82
2018-11-07T09:07:17.154Z,33.65
2018-11-07T09:09:45.335Z,35.65
2018-11-07T09:12:13.562Z,38.55
2018-11-07T09:14:41.714Z,40.60
2018-11-07T09:17:09.906Z,40.48
2018-11-07T09:19:38.113Z,43.45
2018-11-07T09:22:06.294Z,37.17
2018-11-07T09:24:34.656Z,39.67
2018-11-07T09:27:03.104Z,36.40
2018-11-07T09:29:31.243Z,38.30
2018-11-07T09:31:59.438Z,38.88
2018-11-07T09:34:27.617Z,39.55
2018-11-07T09:36:55.820Z,37.03
2018-11-07T09:39:23.906Z,41.73
2018-11-07T09:41:52.090Z,36.20
2018-11-07T09:44:20.265Z,34.63
2018-11-07T09:46:48.453Z,39.23
2018-11-07T09:49:16.766Z,36.23
2018-11-07T09:51:44.938Z,34.90
2018-11-07T09:54:13.257Z,31.75
2018-11-07T09:56:41.405Z,30.72
2018-11-07T09:59:09.602Z,30.20
2018-11-07T10:01:37.790Z,29.25
2018-11-07T10:04:05.969Z,36.48
2018-11-07T10:06:34.186Z,27.80
2018-11-07T10:09:02.245Z,28.92
2018-11-07T10:11:30.450Z,27.60
2018-11-07T10:13:58.610Z,25.92
2018-11-07T10:16:26.797Z,25.55
2018-11-07T10:18:54.994Z,27.80
2018-11-07T10:21:23.086Z,26.37
2018-11-07T10:23:51.253Z,25.35
2018-11-07T10:26:19.445Z,26.95
2018-11-07T10:28:47.863Z,26.37
2018-11-07T10:31:15.842Z,26.00
2018-11-07T10:33:44.014Z,23.67
2018-11-07T10:36:12.186Z,27.55
2018-11-07T10:38:40.560Z,23.45
2018-11-07T10:41:08.562Z,27.55
2018-11-07T10:43:36.771Z,22.62
2018-11-07T10:46:05.216Z,21.87
2018-11-07T10:48:33.348Z,22.75
2018-11-07T10:51:01.552Z,23.22
2018-11-07T10:53:29.715Z,24.25
2018-11-07T10:55:57.885Z,21.55
2018-11-07T10:58:26.175Z,20.92
2018-11-07T11:00:59.672Z,19.50
2018-11-07T11:03:28.525Z,19.62
2018-11-07T11:05:56.702Z,19.57
2018-11-07T11:08:24.885Z,23.02
2018-11-07T11:10:53.050Z,19.67
2018-11-07T11:13:21.268Z,18.73
2018-11-07T11:15:49.434Z,20.10
2018-11-07T11:18:17.610Z,17.92
2018-11-07T11:20:45.782Z,23.38
2018-11-07T11:23:13.895Z,18.55
2018-11-07T11:25:42.123Z,19.82
2018-11-07T11:28:10.269Z,20.85
2018-11-07T11:30:38.440Z,18.12
2018-11-07T11:33:06.631Z,18.67
2018-11-07T11:35:34.698Z,18.52
2018-11-07T11:38:02.797Z,19.90
2018-11-07T11:40:30.991Z,17.77
2018-11-07T11:42:59.174Z,19.45
2018-11-07T11:45:27.343Z,19.00
2018-11-07T11:47:55.422Z,21.95
2018-11-07T11:50:23.522Z,15.93
2018-11-07T11:52:51.714Z,18.48
2018-11-07T11:55:19.881Z,16.30
2018-11-07T11:57:48.234Z,16.10
2018-11-07T12:00:17.766Z,20.00
2018-11-07T12:02:46.250Z,18.57
2018-11-07T12:05:15.236Z,15.85
2018-11-07T12:07:43.634Z,20.23
2018-11-07T12:10:19.300Z,13.48
2018-11-07T12:12:48.719Z,13.45
2018-11-07T12:15:17.890Z,12.15
2018-11-07T12:17:46.006Z,14.47
2018-11-07T12:20:14.181Z,13.68
2018-11-07T12:22:42.357Z,16.35
2018-11-07T12:25:11.627Z,12.82
2018-11-07T12:27:40.294Z,15.78
2018-11-07T12:30:10.942Z,11.90
2018-11-07T12:32:39.154Z,12.40
2018-11-07T12:35:07.291Z,15.45
2018-11-07T12:37:35.464Z,14.07
2018-11-07T12:40:03.847Z,13.90
2018-11-07T12:42:32.051Z,12.73
2018-11-07T12:45:00.561Z,13.62
2018-11-07T12:47:28.948Z,11.85
2018-11-07T12:49:57.276Z,10.45
2018-11-07T12:52:25.300Z,10.18
2018-11-07T12:54:53.618Z,12.73
2018-11-07T12:57:21.897Z,14.20
2018-11-07T12:59:49.973Z,9.83
2018-11-07T13:02:18.278Z,26.52
2018-11-07T13:04:46.482Z,22.42
2018-11-07T13:07:14.659Z,25.43
2018-11-07T13:09:42.826Z,15.43
2018-11-07T13:12:11.018Z,16.32
2018-11-07T13:14:39.198Z,13.78
2018-11-07T13:17:07.371Z,9.25
2018-11-07T13:19:35.570Z,31.12
2018-11-07T13:22:03.764Z,16.05
2018-11-07T13:24:31.942Z,12.58
2018-11-07T13:27:00.143Z,10.48
2018-11-07T13:29:28.230Z,12.33
2018-11-07T13:31:56.407Z,9.35
2018-11-07T13:34:24.592Z,9.63
2018-11-07T13:36:52.950Z,11.08
2018-11-07T13:39:21.324Z,8.80
2018-11-07T13:41:49.734Z,7.65
2018-11-07T13:44:17.842Z,10.45
2018-11-07T13:46:46.023Z,10.65
2018-11-07T13:49:14.221Z,16.62
2018-11-07T13:51:42.406Z,11.75
2018-11-07T13:54:10.604Z,11.73
2018-11-07T13:56:38.766Z,16.05
2018-11-07T13:59:07.022Z,12.80
2018-11-07T14:01:35.146Z,13.32
2018-11-07T14:04:03.346Z,13.30
2018-11-07T14:06:31.523Z,16.05
2018-11-07T14:08:59.730Z,11.18
2018-11-07T14:11:27.898Z,13.00
2018-11-07T14:13:56.110Z,13.65
2018-11-07T14:16:24.268Z,19.27
2018-11-07T14:18:52.353Z,15.38
2018-11-07T14:21:20.545Z,13.30
2018-11-07T14:23:48.764Z,11.25
2018-11-07T14:26:16.923Z,10.00
2018-11-07T14:28:45.079Z,8.90
2018-11-07T14:31:13.390Z,11.85
2018-11-07T14:33:41.574Z,11.63
2018-11-07T14:36:09.751Z,11.10
2018-11-07T14:38:37.868Z,11.83
2018-11-07T14:41:05.934Z,8.98
2018-11-07T14:43:34.118Z,8.88
2018-11-07T14:46:02.333Z,11.63
2018-11-07T14:48:30.377Z,11.60
2018-11-07T14:50:58.476Z,7.15
2018-11-07T14:53:26.683Z,9.65
2018-11-07T14:55:54.738Z,8.80
2018-11-07T14:58:22.806Z,6.83
2018-11-07T15:00:50.910Z,7.42
2018-11-07T15:03:18.986Z,9.65
2018-11-07T15:05:47.127Z,6.53
2018-11-07T15:08:15.350Z,6.53
2018-11-07T15:10:43.459Z,10.43
2018-11-07T15:13:11.522Z,6.45
2018-11-07T15:15:39.649Z,8.23
2018-11-07T15:18:07.818Z,7.37
2018-11-07T15:20:36.029Z,10.15
2018-11-07T15:23:04.270Z,6.95
2018-11-07T15:25:32.394Z,9.10
2018-11-07T15:28:00.579Z,10.08
2018-11-07T15:30:29.531Z,9.28
2018-11-07T15:32:57.657Z,8.38
2018-11-07T15:35:25.858Z,8.48
2018-11-07T15:37:53.965Z,11.12
2018-11-07T15:40:22.127Z,11.97
2018-11-07T15:42:50.306Z,7.70
2018-11-07T15:45:19.538Z,6.35
2018-11-07T15:47:47.699Z,10.35
2018-11-07T15:51:25.154Z,11.70
2018-11-07T15:53:53.294Z,9.90
2018-11-07T15:56:21.493Z,7.83
2018-11-07T15:58:49.682Z,8.68
2018-11-07T16:01:17.915Z,9.93
2018-11-07T16:03:48.399Z,10.85
2018-11-07T16:06:17.737Z,14.65
2018-11-07T16:08:45.814Z,11.88
2018-11-07T16:11:13.994Z,9.05
2018-11-07T16:13:42.196Z,7.90
2018-11-07T16:16:10.382Z,9.63
2018-11-07T16:18:38.542Z,6.85
2018-11-07T16:21:06.742Z,9.00
2018-11-07T16:23:34.938Z,19.10
2018-11-07T16:26:03.073Z,15.15
2018-11-07T16:28:31.215Z,10.38
2018-11-07T16:30:59.394Z,9.68
2018-11-07T16:33:27.566Z,8.83
2018-11-07T16:35:55.767Z,8.43
2018-11-07T16:38:23.974Z,7.78
2018-11-07T16:40:52.254Z,11.90
2018-11-07T16:43:20.237Z,8.35
2018-11-07T16:45:48.430Z,8.50
2018-11-07T16:48:16.645Z,7.22
2018-11-07T16:50:44.799Z,8.28
2018-11-07T16:53:12.878Z,8.18
2018-11-07T16:55:41.074Z,8.05
2018-11-07T16:58:09.250Z,9.15
2018-11-07T17:00:37.426Z,8.68
2018-11-07T17:03:05.678Z,9.70
2018-11-07T17:05:33.863Z,8.60
2018-11-07T17:08:01.977Z,9.88
2018-11-07T17:10:30.186Z,10.53
2018-11-07T17:12:58.370Z,10.25
2018-11-07T17:15:26.542Z,16.02
2018-11-07T17:17:54.729Z,14.33
2018-11-07T17:20:22.939Z,11.63
2018-11-07T17:22:51.130Z,13.10
2018-11-07T17:25:19.630Z,13.65
2018-11-07T17:27:47.914Z,11.55
2018-11-07T17:30:17.218Z,9.48
2018-11-07T17:32:45.314Z,10.63
2018-11-07T17:35:14.725Z,16.20
2018-11-07T17:37:43.446Z,13.62
2018-11-07T17:40:14.701Z,14.18
2018-11-07T17:42:43.489Z,13.13
2018-11-07T17:45:13.649Z,9.13
2018-11-07T17:47:42.328Z,14.95
2018-11-07T17:50:11.944Z,8.93
2018-11-07T17:52:40.361Z,8.53
2018-11-07T17:55:09.638Z,10.20
2018-11-07T17:57:37.738Z,13.35
2018-11-07T18:00:07.965Z,13.60
2018-11-07T18:02:36.130Z,10.78
2018-11-07T18:05:04.355Z,12.23
2018-11-07T18:07:32.516Z,10.85
2018-11-07T18:10:00.698Z,8.58
2018-11-07T18:12:28.921Z,12.65
2018-11-07T18:14:57.074Z,10.78
2018-11-07T18:17:25.243Z,15.10
2018-11-07T18:19:53.334Z,15.32
2018-11-07T18:22:21.506Z,11.90
2018-11-07T18:24:49.621Z,12.25
2018-11-07T18:27:17.817Z,12.30
2018-11-07T18:29:45.871Z,13.40
2018-11-07T18:32:13.993Z,13.18
2018-11-07T18:34:42.046Z,12.23
2018-11-07T18:37:10.213Z,14.35
2018-11-07T18:39:38.647Z,9.93
2018-11-07T18:42:06.789Z,12.43
2018-11-07T18:44:35.062Z,12.50
2018-11-07T18:47:03.069Z,11.25
2018-11-07T18:49:31.159Z,15.30
2018-11-07T18:51:59.330Z,13.55
2018-11-07T18:54:27.427Z,19.85
2018-11-07T18:56:55.610Z,12.30
2018-11-07T18:59:23.806Z,19.02
2018-11-07T19:01:51.878Z,13.13
2018-11-07T19:04:19.976Z,13.35
2018-11-07T19:06:48.277Z,7.70
2018-11-07T19:09:16.338Z,6.35
2018-11-07T19:11:44.403Z,7.95
2018-11-07T19:14:12.530Z,8.48
2018-11-07T19:16:40.708Z,4.37
2018-11-07T19:19:08.778Z,4.75
2018-11-07T19:21:36.966Z,6.42
2018-11-07T19:24:05.232Z,4.50
2018-11-07T19:26:33.361Z,3.52
2018-11-07T19:29:01.447Z,4.30
2018-11-07T19:31:29.598Z,6.15
2018-11-07T19:33:57.710Z,7.80
2018-11-07T19:36:25.877Z,7.28
2018-11-07T19:38:53.968Z,6.22
2018-11-07T19:41:22.074Z,10.88
2018-11-07T19:43:50.238Z,7.17
2018-11-07T19:46:18.359Z,14.95
2018-11-07T19:48:46.510Z,10.48
2018-11-07T19:51:14.594Z,9.73
2018-11-07T19:53:42.772Z,8.90
2018-11-07T19:56:10.873Z,10.08
2018-11-07T19:58:41.428Z,8.60
2018-11-07T20:01:09.613Z,9.85
2018-11-07T20:03:37.774Z,7.72
2018-11-07T20:06:06.102Z,9.90
2018-11-07T20:08:34.257Z,8.28
2018-11-07T20:11:02.352Z,10.85
2018-11-07T20:13:30.525Z,7.72
2018-11-07T20:15:58.733Z,10.65
2018-11-07T20:18:26.906Z,11.03
2018-11-07T20:20:54.995Z,10.13
2018-11-07T20:23:23.201Z,11.40
2018-11-07T20:25:51.174Z,13.95
2018-11-07T20:28:19.361Z,10.23
2018-11-07T20:30:47.561Z,11.22
2018-11-07T20:33:15.736Z,10.82
2018-11-07T20:35:44.022Z,11.38
2018-11-07T20:38:12.091Z,11.20
2018-11-07T20:40:40.285Z,10.63
2018-11-07T20:43:08.458Z,7.30
2018-11-07T20:45:36.558Z,9.05
2018-11-07T20:48:04.775Z,7.35
2018-11-07T20:50:32.930Z,6.28
2018-11-07T20:53:01.102Z,8.90
2018-11-07T20:55:29.218Z,8.48
2018-11-07T20:57:57.387Z,6.50
2018-11-07T21:00:25.581Z,7.05
2018-11-07T21:02:53.749Z,9.03
2018-11-07T21:05:21.838Z,8.00
2018-11-07T21:07:49.914Z,6.95
2018-11-07T21:10:19.271Z,6.75
2018-11-07T21:12:47.869Z,8.25
2018-11-07T21:15:17.074Z,6.10
2018-11-07T21:17:45.473Z,7.35
2018-11-07T21:20:13.686Z,8.88
2018-11-07T21:22:42.365Z,6.65
2018-11-07T21:25:10.743Z,8.65
2018-11-07T21:27:38.965Z,6.78
2018-11-07T21:30:09.218Z,7.95
2018-11-07T21:32:37.478Z,7.22
2018-11-07T21:35:05.945Z,6.08
2018-11-07T21:37:34.033Z,5.90
2018-11-07T21:40:02.329Z,5.65
2018-11-07T21:42:30.725Z,5.42
2018-11-07T21:44:58.897Z,4.95
2018-11-07T21:47:27.072Z,8.58
2018-11-07T21:49:55.298Z,5.33
2018-11-07T21:52:23.461Z,6.15
2018-11-07T21:54:51.722Z,5.40
2018-11-07T21:57:19.817Z,5.37
2018-11-07T21:59:48.001Z,7.05
2018-11-07T22:02:16.206Z,5.47
2018-11-07T22:04:44.378Z,4.85
2018-11-07T22:07:12.558Z,7.62
2018-11-07T22:09:40.761Z,5.65
2018-11-07T22:12:08.928Z,6.30
2018-11-07T22:14:37.026Z,5.80
2018-11-07T22:17:05.266Z,6.00
2018-11-07T22:19:33.402Z,4.42
2018-11-07T22:22:01.581Z,5.72
2018-11-07T22:24:29.773Z,6.45
2018-11-07T22:26:57.957Z,6.00
2018-11-07T22:29:26.159Z,5.53
2018-11-07T22:31:54.326Z,9.93
2018-11-07T22:34:22.527Z,7.72
2018-11-07T22:36:50.706Z,9.13
2018-11-07T22:39:18.890Z,7.55
2018-11-07T22:41:47.073Z,6.28
2018-11-07T22:44:15.278Z,6.80
2018-11-07T22:46:43.650Z,6.72
2018-11-07T22:49:11.855Z,8.80
2018-11-07T22:51:40.030Z,8.18
2018-11-07T22:54:08.217Z,8.13
2018-11-07T22:56:36.407Z,6.87
2018-11-07T22:59:04.644Z,9.38
2018-11-07T23:01:38.015Z,7.78
2018-11-07T23:04:06.324Z,6.47
2018-11-07T23:06:34.817Z,6.92
2018-11-07T23:09:03.010Z,7.10
2018-11-07T23:11:31.174Z,9.58
2018-11-07T23:13:59.358Z,7.97
2018-11-07T23:16:27.551Z,7.33
2018-11-07T23:18:55.734Z,7.85
2018-11-07T23:21:23.935Z,6.72
2018-11-07T23:23:52.116Z,10.05
2018-11-07T23:26:20.287Z,7.10
2018-11-07T23:28:48.478Z,7.08
2018-11-07T23:31:16.651Z,8.03
2018-11-07T23:33:44.841Z,8.55
2018-11-07T23:36:13.022Z,8.25
2018-11-07T23:38:41.246Z,9.13
2018-11-07T23:41:09.400Z,7.97
2018-11-07T23:43:37.818Z,8.38
2018-11-07T23:46:05.994Z,8.68
2018-11-07T23:48:34.199Z,8.73
2018-11-07T23:51:02.350Z,9.65
2018-11-07T23:53:30.538Z,9.95
2018-11-07T23:55:58.721Z,9.88
2018-11-07T23:58:26.926Z,12.07
